sensor_id;sensor_type;location;lat;lon;timestamp;pressure;altitude;pressure_sealevel;temperature;humidity
37486;BME280;23341;50.296;18.960;2023-05-10T00:00:34;49546.50;;;-144.43;66.80
37486;BME280;23341;50.296;18.960;2023-05-10T00:05:46;49530.50;;;-144.43;67.41
37486;BME280;23341;50.296;18.960;2023-05-10T00:10:53;49534.50;;;-144.43;68.22
37486;BME280;23341;50.296;18.960;2023-05-10T00:15:57;49552.50;;;-144.43;68.88
37486;BME280;23341;50.296;18.960;2023-05-10T00:21:02;49542.50;;;-144.43;68.68
37486;BME280;23341;50.296;18.960;2023-05-10T00:26:07;49534.50;;;-144.43;69.24
37486;BME280;23341;50.296;18.960;2023-05-10T00:31:13;49552.50;;;-144.43;69.91
37486;BME280;23341;50.296;18.960;2023-05-10T00:36:17;49514.53;;;-144.43;70.14
37486;BME280;23341;50.296;18.960;2023-05-10T00:41:23;49522.53;;;-144.43;70.34
37486;BME280;23341;50.296;18.960;2023-05-10T00:46:29;49538.50;;;-144.43;70.40
37486;BME280;23341;50.296;18.960;2023-05-10T00:51:34;49546.50;;;-144.43;70.94
37486;BME280;23341;50.296;18.960;2023-05-10T00:56:41;49538.50;;;-144.43;70.99
37486;BME280;23341;50.296;18.960;2023-05-10T01:01:46;49528.50;;;-144.43;71.72
37486;BME280;23341;50.296;18.960;2023-05-10T01:06:51;49520.53;;;-144.43;71.59
37486;BME280;23341;50.296;18.960;2023-05-10T01:11:58;49526.50;;;-144.43;71.66
37486;BME280;23341;50.296;18.960;2023-05-10T01:17:05;49492.53;;;-144.43;72.07
37486;BME280;23341;50.296;18.960;2023-05-10T01:22:25;49546.50;;;-144.43;72.57
37486;BME280;23341;50.296;18.960;2023-05-10T01:27:51;49530.50;;;-144.43;73.01
37486;BME280;23341;50.296;18.960;2023-05-10T01:33:01;49508.53;;;-144.43;73.28
37486;BME280;23341;50.296;18.960;2023-05-10T01:38:18;49538.50;;;-144.43;73.91
37486;BME280;23341;50.296;18.960;2023-05-10T01:43:28;49540.50;;;-144.43;73.75
37486;BME280;23341;50.296;18.960;2023-05-10T01:48:34;49534.50;;;-144.43;74.21
37486;BME280;23341;50.296;18.960;2023-05-10T01:53:39;49512.53;;;-144.43;74.69
37486;BME280;23341;50.296;18.960;2023-05-10T01:58:46;49518.53;;;-144.43;75.86
37486;BME280;23341;50.296;18.960;2023-05-10T02:03:55;49522.53;;;-144.43;76.35
37486;BME280;23341;50.296;18.960;2023-05-10T02:09:00;49522.53;;;-144.43;77.23
37486;BME280;23341;50.296;18.960;2023-05-10T02:14:07;49534.50;;;-144.43;77.48
37486;BME280;23341;50.296;18.960;2023-05-10T02:19:15;49526.50;;;-144.43;78.35
37486;BME280;23341;50.296;18.960;2023-05-10T02:24:22;49554.50;;;-144.43;78.51
37486;BME280;23341;50.296;18.960;2023-05-10T02:29:28;49556.50;;;-144.43;78.60
37486;BME280;23341;50.296;18.960;2023-05-10T02:34:35;49532.50;;;-144.43;79.18
37486;BME280;23341;50.296;18.960;2023-05-10T02:39:41;49564.50;;;-144.43;79.46
37486;BME280;23341;50.296;18.960;2023-05-10T02:44:48;49562.50;;;-144.43;79.90
37486;BME280;23341;50.296;18.960;2023-05-10T02:49:56;49554.50;;;-144.43;79.79
37486;BME280;23341;50.296;18.960;2023-05-10T02:55:02;49554.50;;;-144.43;79.89
37486;BME280;23341;50.296;18.960;2023-05-10T03:00:09;49546.50;;;-144.43;79.69
37486;BME280;23341;50.296;18.960;2023-05-10T03:05:15;49560.50;;;-144.43;80.13
37486;BME280;23341;50.296;18.960;2023-05-10T03:10:22;49518.53;;;-144.43;79.46
37486;BME280;23341;50.296;18.960;2023-05-10T03:15:37;49588.47;;;-144.43;79.76
37486;BME280;23341;50.296;18.960;2023-05-10T03:20:49;49554.50;;;-144.43;79.43
37486;BME280;23341;50.296;18.960;2023-05-10T03:25:55;49590.47;;;-144.43;79.23
37486;BME280;23341;50.296;18.960;2023-05-10T03:30:59;49574.47;;;-144.43;78.85
37486;BME280;23341;50.296;18.960;2023-05-10T03:36:07;49586.47;;;-144.43;79.66
37486;BME280;23341;50.296;18.960;2023-05-10T03:41:12;49574.47;;;-144.43;79.34
37486;BME280;23341;50.296;18.960;2023-05-10T03:46:17;49600.47;;;-144.43;78.66
37486;BME280;23341;50.296;18.960;2023-05-10T03:51:23;49596.47;;;-144.43;79.08
37486;BME280;23341;50.296;18.960;2023-05-10T03:56:31;49578.47;;;-144.43;78.86
37486;BME280;23341;50.296;18.960;2023-05-10T04:01:36;49612.47;;;-144.43;78.78
37486;BME280;23341;50.296;18.960;2023-05-10T04:06:41;49590.47;;;-144.43;78.77
37486;BME280;23341;50.296;18.960;2023-05-10T04:11:46;49590.47;;;-144.43;78.05
37486;BME280;23341;50.296;18.960;2023-05-10T04:16:50;49630.44;;;-144.43;78.49
37486;BME280;23341;50.296;18.960;2023-05-10T04:21:56;49652.44;;;-144.43;78.96
37486;BME280;23341;50.296;18.960;2023-05-10T04:27:01;49634.44;;;-144.43;78.62
37486;BME280;23341;50.296;18.960;2023-05-10T04:32:05;49646.44;;;-144.43;77.09
37486;BME280;23341;50.296;18.960;2023-05-10T04:37:11;49634.44;;;-144.43;76.43
37486;BME280;23341;50.296;18.960;2023-05-10T04:42:15;49644.44;;;-144.43;76.67
37486;BME280;23341;50.296;18.960;2023-05-10T04:47:19;49618.47;;;-144.43;75.33
37486;BME280;23341;50.296;18.960;2023-05-10T04:52:25;49672.44;;;-144.43;75.17
37486;BME280;23341;50.296;18.960;2023-05-10T04:57:29;49660.44;;;-144.43;73.13
37486;BME280;23341;50.296;18.960;2023-05-10T05:02:33;49690.41;;;-144.43;71.53
37486;BME280;23341;50.296;18.960;2023-05-10T05:07:39;49716.41;;;-144.43;70.95
37486;BME280;23341;50.296;18.960;2023-05-10T05:12:44;49728.41;;;-144.43;69.33
37486;BME280;23341;50.296;18.960;2023-05-10T05:17:49;49796.34;;;-144.43;65.64
37486;BME280;23341;50.296;18.960;2023-05-10T05:22:55;49736.38;;;-144.43;64.46
37486;BME280;23341;50.296;18.960;2023-05-10T05:27:59;49776.38;;;-144.43;64.91
37486;BME280;23341;50.296;18.960;2023-05-10T05:33:04;49790.34;;;-144.43;62.73
37486;BME280;23341;50.296;18.960;2023-05-10T05:38:10;49806.34;;;-144.43;62.08
37486;BME280;23341;50.296;18.960;2023-05-10T05:43:15;49850.31;;;-144.43;59.89
37486;BME280;23341;50.296;18.960;2023-05-10T05:48:19;49856.31;;;-144.43;58.80
37486;BME280;23341;50.296;18.960;2023-05-10T05:53:25;49970.25;;;-144.43;54.87
37486;BME280;23341;50.296;18.960;2023-05-10T05:58:30;50214.13;;;-144.43;49.22
37486;BME280;23341;50.296;18.960;2023-05-10T06:03:34;50450.03;;;-144.43;43.08
37486;BME280;23341;50.296;18.960;2023-05-10T06:08:40;50558.00;;;-144.43;40.27
37486;BME280;23341;50.296;18.960;2023-05-10T06:13:44;51205.78;;;-144.43;35.71
37486;BME280;23341;50.296;18.960;2023-05-10T06:18:50;51109.81;;;-144.43;33.46
37486;BME280;23341;50.296;18.960;2023-05-10T06:23:55;51433.75;;;-144.43;32.66
37486;BME280;23341;50.296;18.960;2023-05-10T06:29:00;51209.78;;;-144.43;32.38
37486;BME280;23341;50.296;18.960;2023-05-10T06:34:04;51181.81;;;-144.43;32.49
37486;BME280;23341;50.296;18.960;2023-05-10T06:39:12;51819.72;;;-144.43;30.59
37486;BME280;23341;50.296;18.960;2023-05-10T06:44:16;51421.75;;;-144.43;30.48
37486;BME280;23341;50.296;18.960;2023-05-10T06:49:20;51233.78;;;-144.43;31.17
37486;BME280;23341;50.296;18.960;2023-05-10T06:54:26;51241.78;;;-144.43;30.04
37486;BME280;23341;50.296;18.960;2023-05-10T06:59:30;51249.78;;;-144.43;30.40
37486;BME280;23341;50.296;18.960;2023-05-10T07:04:35;51515.75;;;-144.43;29.58
37486;BME280;23341;50.296;18.960;2023-05-10T07:09:41;51469.75;;;-144.43;29.16
37486;BME280;23341;50.296;18.960;2023-05-10T07:14:45;51781.72;;;-144.43;28.13
37486;BME280;23341;50.296;18.960;2023-05-10T07:19:49;52261.72;;;-144.43;27.16
37486;BME280;23341;50.296;18.960;2023-05-10T07:24:55;52765.75;;;-144.43;26.23
37486;BME280;23341;50.296;18.960;2023-05-10T07:30:00;52893.78;;;-144.43;25.69
37486;BME280;23341;50.296;18.960;2023-05-10T07:35:04;53013.81;;;-144.43;24.94
37486;BME280;23341;50.296;18.960;2023-05-10T07:40:11;52097.69;;;-144.43;26.14
37486;BME280;23341;50.296;18.960;2023-05-10T07:45:15;51757.72;;;-144.43;26.14
37486;BME280;23341;50.296;18.960;2023-05-10T07:50:23;52101.69;;;-144.43;25.97
37486;BME280;23341;50.296;18.960;2023-05-10T07:55:29;52957.81;;;-144.43;24.42
37486;BME280;23341;50.296;18.960;2023-05-10T08:00:33;52341.72;;;-144.43;24.77
37486;BME280;23341;50.296;18.960;2023-05-10T08:05:38;52281.72;;;-144.43;24.89
37486;BME280;23341;50.296;18.960;2023-05-10T08:10:45;52769.75;;;-144.43;24.40
37486;BME280;23341;50.296;18.960;2023-05-10T08:15:49;52287.72;;;-144.43;24.18
37486;BME280;23341;50.296;18.960;2023-05-10T08:20:55;51543.75;;;-144.43;25.66
37486;BME280;23341;50.296;18.960;2023-05-10T08:26:01;51977.69;;;-144.43;25.36
37486;BME280;23341;50.296;18.960;2023-05-10T08:31:05;51585.72;;;-144.43;25.91
37486;BME280;23341;50.296;18.960;2023-05-10T08:36:10;51733.72;;;-144.43;25.64
37486;BME280;23341;50.296;18.960;2023-05-10T08:41:19;51449.75;;;-144.43;26.35
37486;BME280;23341;50.296;18.960;2023-05-10T08:46:25;51357.75;;;-144.43;26.57
37486;BME280;23341;50.296;18.960;2023-05-10T08:51:35;51853.72;;;-144.43;25.51
37486;BME280;23341;50.296;18.960;2023-05-10T08:56:41;51309.78;;;-144.43;26.20
37486;BME280;23341;50.296;18.960;2023-05-10T09:01:47;50867.88;;;-144.43;28.03
37486;BME280;23341;50.296;18.960;2023-05-10T09:06:52;51175.81;;;-144.43;27.07
37486;BME280;23341;50.296;18.960;2023-05-10T09:11:57;51211.78;;;-144.43;27.15
37486;BME280;23341;50.296;18.960;2023-05-10T09:17:02;51067.81;;;-144.43;27.30
37486;BME280;23341;50.296;18.960;2023-05-10T09:22:07;50767.91;;;-144.43;28.74
37486;BME280;23341;50.296;18.960;2023-05-10T09:27:12;50725.94;;;-144.43;29.38
37486;BME280;23341;50.296;18.960;2023-05-10T09:32:17;50526.00;;;-144.43;29.74
37486;BME280;23341;50.296;18.960;2023-05-10T09:37:29;50478.03;;;-144.43;29.64
37486;BME280;23341;50.296;18.960;2023-05-10T09:42:35;50681.94;;;-144.43;30.11
37486;BME280;23341;50.296;18.960;2023-05-10T09:47:39;50693.94;;;-144.43;29.43
37486;BME280;23341;50.296;18.960;2023-05-10T09:52:48;50639.97;;;-144.43;29.47
37486;BME280;23341;50.296;18.960;2023-05-10T09:58:00;50564.00;;;-144.43;30.29
37486;BME280;23341;50.296;18.960;2023-05-10T10:03:05;50709.94;;;-144.43;29.59
37486;BME280;23341;50.296;18.960;2023-05-10T10:08:10;50805.91;;;-144.43;29.40
37486;BME280;23341;50.296;18.960;2023-05-10T10:13:17;50941.88;;;-144.43;29.25
37486;BME280;23341;50.296;18.960;2023-05-10T10:18:22;50683.94;;;-144.43;29.18
37486;BME280;23341;50.296;18.960;2023-05-10T10:23:30;50891.88;;;-144.43;29.15
37486;BME280;23341;50.296;18.960;2023-05-10T10:28:40;50995.84;;;-144.43;28.10
37486;BME280;23341;50.296;18.960;2023-05-10T10:33:56;50817.91;;;-144.43;29.50
37486;BME280;23341;50.296;18.960;2023-05-10T10:39:09;50861.88;;;-144.43;28.63
37486;BME280;23341;50.296;18.960;2023-05-10T10:44:25;50827.91;;;-144.43;29.75
37486;BME280;23341;50.296;18.960;2023-05-10T10:49:31;51019.84;;;-144.43;28.96
37486;BME280;23341;50.296;18.960;2023-05-10T10:54:36;51125.81;;;-144.43;28.44
37486;BME280;23341;50.296;18.960;2023-05-10T10:59:45;50889.88;;;-144.43;28.99
37486;BME280;23341;50.296;18.960;2023-05-10T11:04:49;50881.88;;;-144.43;29.13
37486;BME280;23341;50.296;18.960;2023-05-10T11:09:54;50719.94;;;-144.43;30.29
37486;BME280;23341;50.296;18.960;2023-05-10T11:15:01;50687.94;;;-144.43;29.78
37486;BME280;23341;50.296;18.960;2023-05-10T11:20:09;50805.91;;;-144.43;29.36
37486;BME280;23341;50.296;18.960;2023-05-10T11:25:13;51023.84;;;-144.43;28.91
37486;BME280;23341;50.296;18.960;2023-05-10T11:30:19;51213.78;;;-144.43;27.95
37486;BME280;23341;50.296;18.960;2023-05-10T11:35:24;51529.75;;;-144.43;27.40
37486;BME280;23341;50.296;18.960;2023-05-10T11:40:31;51583.72;;;-144.43;27.20
37486;BME280;23341;50.296;18.960;2023-05-10T11:45:37;51379.75;;;-144.43;27.93
37486;BME280;23341;50.296;18.960;2023-05-10T11:50:43;51279.78;;;-144.43;28.08
37486;BME280;23341;50.296;18.960;2023-05-10T11:55:48;51061.81;;;-144.43;27.81
37486;BME280;23341;50.296;18.960;2023-05-10T12:00:54;51229.78;;;-144.43;28.21
37486;BME280;23341;50.296;18.960;2023-05-10T12:06:00;51321.78;;;-144.43;27.90
37486;BME280;23341;50.296;18.960;2023-05-10T12:11:06;51091.81;;;-144.43;28.86
37486;BME280;23341;50.296;18.960;2023-05-10T12:16:16;51069.81;;;-144.43;28.64
37486;BME280;23341;50.296;18.960;2023-05-10T12:21:21;51239.78;;;-144.43;28.39
37486;BME280;23341;50.296;18.960;2023-05-10T12:26:26;51115.81;;;-144.43;29.67
37486;BME280;23341;50.296;18.960;2023-05-10T12:31:33;51181.81;;;-144.43;28.81
37486;BME280;23341;50.296;18.960;2023-05-10T12:36:38;50923.88;;;-144.43;29.28
37486;BME280;23341;50.296;18.960;2023-05-10T12:41:42;51107.81;;;-144.43;29.18
37486;BME280;23341;50.296;18.960;2023-05-10T12:46:48;50835.91;;;-144.43;29.58
37486;BME280;23341;50.296;18.960;2023-05-10T12:51:53;50819.91;;;-144.43;29.67
37486;BME280;23341;50.296;18.960;2023-05-10T12:56:57;51187.81;;;-144.43;29.52
37486;BME280;23341;50.296;18.960;2023-05-10T13:02:03;51069.81;;;-144.43;28.34
37486;BME280;23341;50.296;18.960;2023-05-10T13:07:07;51047.84;;;-144.43;29.48
37486;BME280;23341;50.296;18.960;2023-05-10T13:12:12;50915.88;;;-144.43;29.56
37486;BME280;23341;50.296;18.960;2023-05-10T13:17:18;50821.91;;;-144.43;29.91
37486;BME280;23341;50.296;18.960;2023-05-10T13:22:22;51105.81;;;-144.43;29.21
37486;BME280;23341;50.296;18.960;2023-05-10T13:27:39;50897.88;;;-144.43;29.71
37486;BME280;23341;50.296;18.960;2023-05-10T13:32:45;50731.94;;;-144.43;30.32
37486;BME280;23341;50.296;18.960;2023-05-10T13:37:49;50705.94;;;-144.43;30.69
37486;BME280;23341;50.296;18.960;2023-05-10T13:42:53;50741.94;;;-144.43;30.93
37486;BME280;23341;50.296;18.960;2023-05-10T13:47:59;50877.88;;;-144.43;30.07
37486;BME280;23341;50.296;18.960;2023-05-10T13:53:04;51293.78;;;-144.43;28.63
37486;BME280;23341;50.296;18.960;2023-05-10T13:58:08;50801.91;;;-144.43;29.71
37486;BME280;23341;50.296;18.960;2023-05-10T14:03:14;50735.94;;;-144.43;30.95
37486;BME280;23341;50.296;18.960;2023-05-10T14:08:19;50671.94;;;-144.43;30.73
37486;BME280;23341;50.296;18.960;2023-05-10T14:13:24;50737.94;;;-144.43;30.61
37486;BME280;23341;50.296;18.960;2023-05-10T14:18:30;50697.94;;;-144.43;30.51
37486;BME280;23341;50.296;18.960;2023-05-10T14:23:34;50783.91;;;-144.43;30.13
37486;BME280;23341;50.296;18.960;2023-05-10T14:28:39;50889.88;;;-144.43;30.49
37486;BME280;23341;50.296;18.960;2023-05-10T14:33:44;50799.91;;;-144.43;30.13
37486;BME280;23341;50.296;18.960;2023-05-10T14:38:49;50729.94;;;-144.43;30.31
37486;BME280;23341;50.296;18.960;2023-05-10T14:43:53;50677.94;;;-144.43;30.80
37486;BME280;23341;50.296;18.960;2023-05-10T14:48:59;50591.97;;;-144.43;30.96
37486;BME280;23341;50.296;18.960;2023-05-10T14:54:03;50585.97;;;-144.43;31.24
37486;BME280;23341;50.296;18.960;2023-05-10T14:59:08;50665.94;;;-144.43;31.69
37486;BME280;23341;50.296;18.960;2023-05-10T15:04:14;50603.97;;;-144.43;31.46
37486;BME280;23341;50.296;18.960;2023-05-10T15:09:19;50713.94;;;-144.43;31.16
37486;BME280;23341;50.296;18.960;2023-05-10T15:14:24;51493.75;;;-144.43;29.10
37486;BME280;23341;50.296;18.960;2023-05-10T15:19:29;51507.75;;;-144.43;28.02
37486;BME280;23341;50.296;18.960;2023-05-10T15:24:34;50853.88;;;-144.43;29.79
37486;BME280;23341;50.296;18.960;2023-05-10T15:29:38;50625.97;;;-144.43;31.60
37486;BME280;23341;50.296;18.960;2023-05-10T15:34:45;50597.97;;;-144.43;32.13
37486;BME280;23341;50.296;18.960;2023-05-10T15:39:49;50597.97;;;-144.43;32.46
37486;BME280;23341;50.296;18.960;2023-05-10T15:44:54;50621.97;;;-144.43;32.49
37486;BME280;23341;50.296;18.960;2023-05-10T15:49:59;50617.97;;;-144.43;32.67
37486;BME280;23341;50.296;18.960;2023-05-10T15:55:04;50657.94;;;-144.43;32.85
37486;BME280;23341;50.296;18.960;2023-05-10T16:00:15;50609.97;;;-144.43;32.72
37486;BME280;23341;50.296;18.960;2023-05-10T16:05:21;50601.97;;;-144.43;32.20
37486;BME280;23341;50.296;18.960;2023-05-10T16:10:26;50649.97;;;-144.43;33.25
37486;BME280;23341;50.296;18.960;2023-05-10T16:15:30;50605.97;;;-144.43;33.08
37486;BME280;23341;50.296;18.960;2023-05-10T16:20:36;50522.00;;;-144.43;32.64
37486;BME280;23341;50.296;18.960;2023-05-10T16:25:40;50472.03;;;-144.43;32.97
37486;BME280;23341;50.296;18.960;2023-05-10T16:30:45;50490.00;;;-144.43;33.19
37486;BME280;23341;50.296;18.960;2023-05-10T16:35:50;50384.06;;;-144.43;33.85
37486;BME280;23341;50.296;18.960;2023-05-10T16:40:55;50428.03;;;-144.43;33.84
37486;BME280;23341;50.296;18.960;2023-05-10T16:45:59;50422.03;;;-144.43;34.63
37486;BME280;23341;50.296;18.960;2023-05-10T16:51:08;50370.06;;;-144.43;34.41
37486;BME280;23341;50.296;18.960;2023-05-10T16:56:13;50374.06;;;-144.43;34.49
37486;BME280;23341;50.296;18.960;2023-05-10T17:01:19;50418.03;;;-144.43;34.38
37486;BME280;23341;50.296;18.960;2023-05-10T17:06:27;50404.06;;;-144.43;34.75
37486;BME280;23341;50.296;18.960;2023-05-10T17:11:32;50300.09;;;-144.43;35.18
37486;BME280;23341;50.296;18.960;2023-05-10T17:16:36;50286.09;;;-144.43;35.87
37486;BME280;23341;50.296;18.960;2023-05-10T17:21:42;50262.13;;;-144.43;36.26
37486;BME280;23341;50.296;18.960;2023-05-10T17:26:46;50226.13;;;-144.43;35.93
37486;BME280;23341;50.296;18.960;2023-05-10T17:31:51;50290.09;;;-144.43;36.48
37486;BME280;23341;50.296;18.960;2023-05-10T17:36:57;50248.13;;;-144.43;37.42
37486;BME280;23341;50.296;18.960;2023-05-10T17:42:01;50162.16;;;-144.43;38.82
37486;BME280;23341;50.296;18.960;2023-05-10T17:47:05;50134.16;;;-144.43;38.88
37486;BME280;23341;50.296;18.960;2023-05-10T17:52:11;50070.19;;;-144.43;40.12
37486;BME280;23341;50.296;18.960;2023-05-10T17:57:15;50018.22;;;-144.43;40.16
37486;BME280;23341;50.296;18.960;2023-05-10T18:02:20;50018.22;;;-144.43;40.56
37486;BME280;23341;50.296;18.960;2023-05-10T18:07:26;50012.22;;;-144.43;41.35
37486;BME280;23341;50.296;18.960;2023-05-10T18:12:31;49986.25;;;-144.43;41.78
37486;BME280;23341;50.296;18.960;2023-05-10T18:17:35;49950.25;;;-144.43;42.31
37486;BME280;23341;50.296;18.960;2023-05-10T18:22:41;49986.25;;;-144.43;42.59
37486;BME280;23341;50.296;18.960;2023-05-10T18:27:46;49956.25;;;-144.43;42.13
37486;BME280;23341;50.296;18.960;2023-05-10T18:32:50;49918.28;;;-144.43;42.98
37486;BME280;23341;50.296;18.960;2023-05-10T18:37:57;49928.28;;;-144.43;43.65
37486;BME280;23341;50.296;18.960;2023-05-10T18:43:01;49906.28;;;-144.43;43.67
37486;BME280;23341;50.296;18.960;2023-05-10T18:48:06;49868.31;;;-144.43;43.33
37486;BME280;23341;50.296;18.960;2023-05-10T18:53:12;49882.31;;;-144.43;43.60
37486;BME280;23341;50.296;18.960;2023-05-10T18:58:16;49888.31;;;-144.43;43.49
37486;BME280;23341;50.296;18.960;2023-05-10T19:03:21;49874.31;;;-144.43;44.10
37486;BME280;23341;50.296;18.960;2023-05-10T19:08:27;49868.31;;;-144.43;44.17
37486;BME280;23341;50.296;18.960;2023-05-10T19:13:31;49834.34;;;-144.43;44.39
37486;BME280;23341;50.296;18.960;2023-05-10T19:18:35;49818.34;;;-144.43;44.86
37486;BME280;23341;50.296;18.960;2023-05-10T19:23:43;49788.34;;;-144.43;45.98
37486;BME280;23341;50.296;18.960;2023-05-10T19:28:49;49774.38;;;-144.43;45.09
37486;BME280;23341;50.296;18.960;2023-05-10T19:33:53;49726.38;;;-144.43;45.56
37486;BME280;23341;50.296;18.960;2023-05-10T19:39:03;49728.41;;;-144.43;45.65
37486;BME280;23341;50.296;18.960;2023-05-10T19:44:08;49692.41;;;-144.43;46.07
37486;BME280;23341;50.296;18.960;2023-05-10T19:49:12;49746.38;;;-144.43;46.19
37486;BME280;23341;50.296;18.960;2023-05-10T19:54:18;49700.41;;;-144.43;46.61
37486;BME280;23341;50.296;18.960;2023-05-10T19:59:22;49712.41;;;-144.43;46.68
37486;BME280;23341;50.296;18.960;2023-05-10T20:04:26;49670.44;;;-144.43;46.88
37486;BME280;23341;50.296;18.960;2023-05-10T20:09:32;49690.41;;;-144.43;47.31
37486;BME280;23341;50.296;18.960;2023-05-10T20:14:37;49670.44;;;-144.43;46.75
37486;BME280;23341;50.296;18.960;2023-05-10T20:19:41;49670.44;;;-144.43;45.94
37486;BME280;23341;50.296;18.960;2023-05-10T20:24:46;49684.41;;;-144.43;46.17
37486;BME280;23341;50.296;18.960;2023-05-10T20:29:50;49692.41;;;-144.43;46.10
37486;BME280;23341;50.296;18.960;2023-05-10T20:34:55;49668.44;;;-144.43;46.17
37486;BME280;23341;50.296;18.960;2023-05-10T20:40:01;49654.44;;;-144.43;46.91
37486;BME280;23341;50.296;18.960;2023-05-10T20:45:07;49618.47;;;-144.43;46.92
37486;BME280;23341;50.296;18.960;2023-05-10T20:50:12;49632.44;;;-144.43;47.79
37486;BME280;23341;50.296;18.960;2023-05-10T20:55:17;49596.47;;;-144.43;47.79
37486;BME280;23341;50.296;18.960;2023-05-10T21:00:21;49592.47;;;-144.43;48.17
37486;BME280;23341;50.296;18.960;2023-05-10T21:05:25;49590.47;;;-144.43;48.21
37486;BME280;23341;50.296;18.960;2023-05-10T21:10:31;49578.47;;;-144.43;48.61
37486;BME280;23341;50.296;18.960;2023-05-10T21:15:36;49558.50;;;-144.43;48.72
37486;BME280;23341;50.296;18.960;2023-05-10T21:20:40;49540.50;;;-144.43;48.70
37486;BME280;23341;50.296;18.960;2023-05-10T21:25:46;49550.50;;;-144.43;49.11
37486;BME280;23341;50.296;18.960;2023-05-10T21:30:51;49542.50;;;-144.43;49.37
37486;BME280;23341;50.296;18.960;2023-05-10T21:35:55;49514.53;;;-144.43;50.28
37486;BME280;23341;50.296;18.960;2023-05-10T21:41:05;49530.50;;;-144.43;50.34
37486;BME280;23341;50.296;18.960;2023-05-10T21:46:09;49482.53;;;-144.43;50.81
37486;BME280;23341;50.296;18.960;2023-05-10T21:51:15;49514.53;;;-144.43;50.99
37486;BME280;23341;50.296;18.960;2023-05-10T21:56:21;49474.56;;;-144.43;51.48
37486;BME280;23341;50.296;18.960;2023-05-10T22:01:25;49490.53;;;-144.43;51.63
37486;BME280;23341;50.296;18.960;2023-05-10T22:06:32;49488.53;;;-144.43;51.67
37486;BME280;23341;50.296;18.960;2023-05-10T22:11:37;49510.53;;;-144.43;51.92
37486;BME280;23341;50.296;18.960;2023-05-10T22:16:42;49514.53;;;-144.43;52.53
37486;BME280;23341;50.296;18.960;2023-05-10T22:21:46;49480.53;;;-144.43;52.85
37486;BME280;23341;50.296;18.960;2023-05-10T22:26:54;49512.53;;;-144.43;52.06
37486;BME280;23341;50.296;18.960;2023-05-10T22:31:58;49536.50;;;-144.43;52.23
37486;BME280;23341;50.296;18.960;2023-05-10T22:37:07;49540.50;;;-144.43;52.70
37486;BME280;23341;50.296;18.960;2023-05-10T22:42:13;49480.53;;;-144.43;52.75
37486;BME280;23341;50.296;18.960;2023-05-10T22:47:17;49518.53;;;-144.43;53.48
37486;BME280;23341;50.296;18.960;2023-05-10T22:52:22;49530.50;;;-144.43;53.01
37486;BME280;23341;50.296;18.960;2023-05-10T22:57:27;49518.53;;;-144.43;53.02
37486;BME280;23341;50.296;18.960;2023-05-10T23:02:31;49520.53;;;-144.43;54.45
37486;BME280;23341;50.296;18.960;2023-05-10T23:07:36;49518.53;;;-144.43;53.79
37486;BME280;23341;50.296;18.960;2023-05-10T23:12:41;49518.53;;;-144.43;54.00
37486;BME280;23341;50.296;18.960;2023-05-10T23:17:46;49518.53;;;-144.43;55.63
37486;BME280;23341;50.296;18.960;2023-05-10T23:22:50;49506.53;;;-144.43;54.92
37486;BME280;23341;50.296;18.960;2023-05-10T23:27:55;49490.53;;;-144.43;55.71
37486;BME280;23341;50.296;18.960;2023-05-10T23:33:00;49502.53;;;-144.43;55.80
37486;BME280;23341;50.296;18.960;2023-05-10T23:38:05;49466.56;;;-144.43;55.54
37486;BME280;23341;50.296;18.960;2023-05-10T23:43:10;49462.56;;;-144.43;56.63
37486;BME280;23341;50.296;18.960;2023-05-10T23:48:17;49462.56;;;-144.43;57.44
37486;BME280;23341;50.296;18.960;2023-05-10T23:53:22;49446.56;;;-144.43;57.42
37486;BME280;23341;50.296;18.960;2023-05-10T23:58:28;49460.56;;;-144.43;56.95
